sensor_id;sensor_type;location;lat;lon;timestamp;P1;durP1;ratioP1;P2;durP2;ratioP2
54787;SDS011;59598;48.112;16.280;2023-01-30T00:00:20;17.93;;;9.47;;
54787;SDS011;59598;48.112;16.280;2023-01-30T00:02:51;18.40;;;9.27;;
54787;SDS011;59598;48.112;16.280;2023-01-30T00:05:24;18.50;;;9.85;;
54787;SDS011;59598;48.112;16.280;2023-01-30T00:07:58;26.17;;;11.88;;
54787;SDS011;59598;48.112;16.280;2023-01-30T00:10:30;20.38;;;9.20;;
54787;SDS011;59598;48.112;16.280;2023-01-30T00:13:02;20.30;;;12.40;;
54787;SDS011;59598;48.112;16.280;2023-01-30T00:15:34;11.68;;;7.20;;
54787;SDS011;59598;48.112;16.280;2023-01-30T00:18:05;16.90;;;10.03;;
54787;SDS011;59598;48.112;16.280;2023-01-30T00:20:39;19.13;;;9.60;;
54787;SDS011;59598;48.112;16.280;2023-01-30T00:23:10;18.37;;;10.67;;
54787;SDS011;59598;48.112;16.280;2023-01-30T00:25:44;17.57;;;8.50;;
54787;SDS011;59598;48.112;16.280;2023-01-30T00:28:15;15.15;;;7.43;;
54787;SDS011;59598;48.112;16.280;2023-01-30T00:30:51;12.07;;;6.78;;
54787;SDS011;59598;48.112;16.280;2023-01-30T00:33:23;15.27;;;8.55;;
54787;SDS011;59598;48.112;16.280;2023-01-30T00:35:56;16.85;;;9.35;;
54787;SDS011;59598;48.112;16.280;2023-01-30T00:38:31;15.55;;;7.28;;
54787;SDS011;59598;48.112;16.280;2023-01-30T00:41:03;14.70;;;7.43;;
54787;SDS011;59598;48.112;16.280;2023-01-30T00:43:34;15.07;;;8.27;;
54787;SDS011;59598;48.112;16.280;2023-01-30T00:49:22;15.95;;;8.45;;
54787;SDS011;59598;48.112;16.280;2023-01-30T00:51:56;12.43;;;6.78;;
54787;SDS011;59598;48.112;16.280;2023-01-30T00:54:29;16.70;;;8.60;;
54787;SDS011;59598;48.112;16.280;2023-01-30T00:57:01;11.43;;;7.43;;
54787;SDS011;59598;48.112;16.280;2023-01-30T00:59:37;13.32;;;7.22;;
54787;SDS011;59598;48.112;16.280;2023-01-30T01:02:09;14.45;;;7.55;;
54787;SDS011;59598;48.112;16.280;2023-01-30T01:04:47;13.07;;;8.13;;
54787;SDS011;59598;48.112;16.280;2023-01-30T01:07:18;11.38;;;6.43;;
54787;SDS011;59598;48.112;16.280;2023-01-30T01:09:50;12.90;;;6.93;;
54787;SDS011;59598;48.112;16.280;2023-01-30T01:12:21;12.82;;;8.02;;
54787;SDS011;59598;48.112;16.280;2023-01-30T01:14:53;14.43;;;7.78;;
54787;SDS011;59598;48.112;16.280;2023-01-30T01:17:24;18.48;;;8.93;;
54787;SDS011;59598;48.112;16.280;2023-01-30T01:19:55;17.23;;;7.80;;
54787;SDS011;59598;48.112;16.280;2023-01-30T01:22:27;13.80;;;5.30;;
54787;SDS011;59598;48.112;16.280;2023-01-30T01:24:58;16.13;;;8.23;;
54787;SDS011;59598;48.112;16.280;2023-01-30T01:27:29;15.27;;;8.23;;
54787;SDS011;59598;48.112;16.280;2023-01-30T01:30:01;11.80;;;6.72;;
54787;SDS011;59598;48.112;16.280;2023-01-30T01:32:32;18.65;;;8.40;;
54787;SDS011;59598;48.112;16.280;2023-01-30T01:35:04;10.93;;;6.18;;
54787;SDS011;59598;48.112;16.280;2023-01-30T01:37:36;12.23;;;7.03;;
54787;SDS011;59598;48.112;16.280;2023-01-30T01:40:09;12.00;;;6.50;;
54787;SDS011;59598;48.112;16.280;2023-01-30T01:43:18;11.50;;;6.32;;
54787;SDS011;59598;48.112;16.280;2023-01-30T01:45:52;14.70;;;7.15;;
54787;SDS011;59598;48.112;16.280;2023-01-30T01:48:28;15.93;;;7.05;;
54787;SDS011;59598;48.112;16.280;2023-01-30T01:51:04;11.55;;;6.03;;
54787;SDS011;59598;48.112;16.280;2023-01-30T01:53:46;11.98;;;5.93;;
54787;SDS011;59598;48.112;16.280;2023-01-30T01:56:24;11.00;;;5.85;;
54787;SDS011;59598;48.112;16.280;2023-01-30T01:58:57;11.10;;;7.82;;
54787;SDS011;59598;48.112;16.280;2023-01-30T02:01:32;12.23;;;6.43;;
54787;SDS011;59598;48.112;16.280;2023-01-30T02:06:40;9.98;;;5.68;;
54787;SDS011;59598;48.112;16.280;2023-01-30T02:09:12;11.30;;;6.35;;
54787;SDS011;59598;48.112;16.280;2023-01-30T02:11:47;9.02;;;5.95;;
54787;SDS011;59598;48.112;16.280;2023-01-30T02:14:30;9.23;;;5.68;;
54787;SDS011;59598;48.112;16.280;2023-01-30T02:17:06;14.23;;;6.22;;
54787;SDS011;59598;48.112;16.280;2023-01-30T02:40:08;10.15;;;5.72;;
54787;SDS011;59598;48.112;16.280;2023-01-30T02:48:14;10.98;;;6.22;;
54787;SDS011;59598;48.112;16.280;2023-01-30T02:51:04;10.65;;;6.10;;
54787;SDS011;59598;48.112;16.280;2023-01-30T02:53:42;8.98;;;5.80;;
54787;SDS011;59598;48.112;16.280;2023-01-30T02:58:48;13.82;;;6.80;;
54787;SDS011;59598;48.112;16.280;2023-01-30T03:07:03;12.27;;;7.00;;
54787;SDS011;59598;48.112;16.280;2023-01-30T03:12:51;12.70;;;6.55;;
54787;SDS011;59598;48.112;16.280;2023-01-30T03:15:37;14.38;;;7.70;;
54787;SDS011;59598;48.112;16.280;2023-01-30T03:18:18;15.50;;;7.25;;
54787;SDS011;59598;48.112;16.280;2023-01-30T03:20:52;15.93;;;6.57;;
54787;SDS011;59598;48.112;16.280;2023-01-30T03:23:29;14.20;;;7.47;;
54787;SDS011;59598;48.112;16.280;2023-01-30T03:26:02;13.75;;;7.47;;
54787;SDS011;59598;48.112;16.280;2023-01-30T03:28:38;13.85;;;7.70;;
54787;SDS011;59598;48.112;16.280;2023-01-30T03:31:11;12.88;;;6.97;;
54787;SDS011;59598;48.112;16.280;2023-01-30T03:33:45;9.95;;;6.45;;
54787;SDS011;59598;48.112;16.280;2023-01-30T03:36:16;15.43;;;7.10;;
54787;SDS011;59598;48.112;16.280;2023-01-30T03:38:50;11.75;;;5.97;;
54787;SDS011;59598;48.112;16.280;2023-01-30T03:41:22;11.23;;;6.57;;
54787;SDS011;59598;48.112;16.280;2023-01-30T03:43:56;17.65;;;8.00;;
54787;SDS011;59598;48.112;16.280;2023-01-30T03:46:27;16.17;;;8.27;;
54787;SDS011;59598;48.112;16.280;2023-01-30T03:48:58;15.15;;;7.60;;
54787;SDS011;59598;48.112;16.280;2023-01-30T03:51:29;13.88;;;7.47;;
54787;SDS011;59598;48.112;16.280;2023-01-30T03:54:01;13.50;;;7.78;;
54787;SDS011;59598;48.112;16.280;2023-01-30T03:56:33;14.45;;;7.15;;
54787;SDS011;59598;48.112;16.280;2023-01-30T03:59:04;15.40;;;7.72;;
54787;SDS011;59598;48.112;16.280;2023-01-30T04:01:35;13.02;;;6.65;;
54787;SDS011;59598;48.112;16.280;2023-01-30T04:04:11;12.18;;;7.13;;
54787;SDS011;59598;48.112;16.280;2023-01-30T04:06:45;15.75;;;7.88;;
54787;SDS011;59598;48.112;16.280;2023-01-30T04:09:18;15.80;;;7.83;;
54787;SDS011;59598;48.112;16.280;2023-01-30T04:11:49;12.85;;;6.80;;
54787;SDS011;59598;48.112;16.280;2023-01-30T04:14:21;11.43;;;6.70;;
54787;SDS011;59598;48.112;16.280;2023-01-30T04:16:52;14.82;;;6.55;;
54787;SDS011;59598;48.112;16.280;2023-01-30T04:19:23;13.48;;;6.68;;
54787;SDS011;59598;48.112;16.280;2023-01-30T04:21:54;10.38;;;6.20;;
54787;SDS011;59598;48.112;16.280;2023-01-30T04:24:25;12.60;;;6.63;;
54787;SDS011;59598;48.112;16.280;2023-01-30T04:26:57;10.73;;;7.07;;
54787;SDS011;59598;48.112;16.280;2023-01-30T04:29:31;13.68;;;7.45;;
54787;SDS011;59598;48.112;16.280;2023-01-30T04:32:02;12.68;;;6.38;;
54787;SDS011;59598;48.112;16.280;2023-01-30T04:34:36;11.80;;;6.20;;
54787;SDS011;59598;48.112;16.280;2023-01-30T04:37:08;12.30;;;6.93;;
54787;SDS011;59598;48.112;16.280;2023-01-30T04:39:39;14.07;;;7.13;;
54787;SDS011;59598;48.112;16.280;2023-01-30T04:42:10;16.17;;;8.18;;
54787;SDS011;59598;48.112;16.280;2023-01-30T04:44:41;16.15;;;7.65;;
54787;SDS011;59598;48.112;16.280;2023-01-30T04:47:15;12.93;;;7.30;;
54787;SDS011;59598;48.112;16.280;2023-01-30T04:49:47;15.00;;;7.43;;
54787;SDS011;59598;48.112;16.280;2023-01-30T04:52:18;14.02;;;7.78;;
54787;SDS011;59598;48.112;16.280;2023-01-30T04:54:51;13.07;;;7.50;;
54787;SDS011;59598;48.112;16.280;2023-01-30T04:57:23;13.77;;;7.65;;
54787;SDS011;59598;48.112;16.280;2023-01-30T04:59:54;13.10;;;7.05;;
54787;SDS011;59598;48.112;16.280;2023-01-30T05:02:25;14.98;;;7.10;;
54787;SDS011;59598;48.112;16.280;2023-01-30T05:04:56;16.15;;;8.02;;
54787;SDS011;59598;48.112;16.280;2023-01-30T05:07:27;12.25;;;6.32;;
54787;SDS011;59598;48.112;16.280;2023-01-30T05:10:01;12.32;;;6.45;;
54787;SDS011;59598;48.112;16.280;2023-01-30T05:12:32;15.23;;;6.65;;
54787;SDS011;59598;48.112;16.280;2023-01-30T05:15:04;9.85;;;6.25;;
54787;SDS011;59598;48.112;16.280;2023-01-30T05:17:36;10.40;;;4.97;;
54787;SDS011;59598;48.112;16.280;2023-01-30T05:20:08;14.32;;;7.45;;
54787;SDS011;59598;48.112;16.280;2023-01-30T05:22:43;11.80;;;6.47;;
54787;SDS011;59598;48.112;16.280;2023-01-30T05:25:21;10.82;;;6.10;;
54787;SDS011;59598;48.112;16.280;2023-01-30T05:27:53;13.50;;;6.22;;
54787;SDS011;59598;48.112;16.280;2023-01-30T05:30:26;9.48;;;5.82;;
54787;SDS011;59598;48.112;16.280;2023-01-30T05:33:01;11.45;;;6.13;;
54787;SDS011;59598;48.112;16.280;2023-01-30T05:35:36;11.05;;;6.40;;
54787;SDS011;59598;48.112;16.280;2023-01-30T05:38:09;13.15;;;7.00;;
54787;SDS011;59598;48.112;16.280;2023-01-30T05:40:40;13.30;;;7.57;;
54787;SDS011;59598;48.112;16.280;2023-01-30T05:43:14;10.73;;;6.78;;
54787;SDS011;59598;48.112;16.280;2023-01-30T05:45:50;10.45;;;6.30;;
54787;SDS011;59598;48.112;16.280;2023-01-30T05:48:23;14.85;;;7.47;;
54787;SDS011;59598;48.112;16.280;2023-01-30T05:50:55;12.20;;;6.18;;
54787;SDS011;59598;48.112;16.280;2023-01-30T05:53:29;9.88;;;5.75;;
54787;SDS011;59598;48.112;16.280;2023-01-30T05:56:07;12.05;;;5.55;;
54787;SDS011;59598;48.112;16.280;2023-01-30T05:58:39;9.40;;;4.53;;
54787;SDS011;59598;48.112;16.280;2023-01-30T06:01:10;11.00;;;5.60;;
54787;SDS011;59598;48.112;16.280;2023-01-30T06:03:43;10.50;;;6.00;;
54787;SDS011;59598;48.112;16.280;2023-01-30T06:06:17;13.95;;;5.78;;
54787;SDS011;59598;48.112;16.280;2023-01-30T06:08:51;8.18;;;5.47;;
54787;SDS011;59598;48.112;16.280;2023-01-30T06:11:26;10.77;;;5.90;;
54787;SDS011;59598;48.112;16.280;2023-01-30T06:14:00;7.55;;;4.88;;
54787;SDS011;59598;48.112;16.280;2023-01-30T06:16:31;11.43;;;5.68;;
54787;SDS011;59598;48.112;16.280;2023-01-30T06:19:05;9.70;;;5.85;;
54787;SDS011;59598;48.112;16.280;2023-01-30T06:21:37;7.90;;;5.18;;
54787;SDS011;59598;48.112;16.280;2023-01-30T06:24:09;8.70;;;5.57;;
54787;SDS011;59598;48.112;16.280;2023-01-30T06:26:43;9.07;;;4.18;;
54787;SDS011;59598;48.112;16.280;2023-01-30T06:29:14;9.13;;;4.38;;
54787;SDS011;59598;48.112;16.280;2023-01-30T06:31:46;9.30;;;4.90;;
54787;SDS011;59598;48.112;16.280;2023-01-30T06:34:17;10.77;;;5.13;;
54787;SDS011;59598;48.112;16.280;2023-01-30T06:36:48;11.77;;;5.00;;
54787;SDS011;59598;48.112;16.280;2023-01-30T06:39:19;9.88;;;5.60;;
54787;SDS011;59598;48.112;16.280;2023-01-30T06:41:50;7.68;;;4.50;;
54787;SDS011;59598;48.112;16.280;2023-01-30T06:44:24;7.97;;;4.25;;
54787;SDS011;59598;48.112;16.280;2023-01-30T06:47:03;7.80;;;4.78;;
54787;SDS011;59598;48.112;16.280;2023-01-30T06:49:36;10.30;;;5.00;;
54787;SDS011;59598;48.112;16.280;2023-01-30T06:52:09;8.85;;;4.32;;
54787;SDS011;59598;48.112;16.280;2023-01-30T06:54:41;6.45;;;3.97;;
54787;SDS011;59598;48.112;16.280;2023-01-30T06:57:13;6.70;;;4.38;;
54787;SDS011;59598;48.112;16.280;2023-01-30T06:59:49;8.50;;;4.90;;
54787;SDS011;59598;48.112;16.280;2023-01-30T07:02:20;12.93;;;4.97;;
54787;SDS011;59598;48.112;16.280;2023-01-30T07:04:51;7.78;;;4.28;;
54787;SDS011;59598;48.112;16.280;2023-01-30T07:07:22;7.53;;;4.68;;
54787;SDS011;59598;48.112;16.280;2023-01-30T07:09:53;13.15;;;4.07;;
54787;SDS011;59598;48.112;16.280;2023-01-30T07:12:27;7.60;;;4.57;;
54787;SDS011;59598;48.112;16.280;2023-01-30T07:14:58;5.40;;;3.42;;
54787;SDS011;59598;48.112;16.280;2023-01-30T07:17:29;9.75;;;4.28;;
54787;SDS011;59598;48.112;16.280;2023-01-30T07:20:00;10.18;;;3.95;;
54787;SDS011;59598;48.112;16.280;2023-01-30T07:22:34;9.02;;;3.00;;
54787;SDS011;59598;48.112;16.280;2023-01-30T07:25:05;8.55;;;3.33;;
54787;SDS011;59598;48.112;16.280;2023-01-30T07:27:37;6.20;;;3.47;;
54787;SDS011;59598;48.112;16.280;2023-01-30T07:30:08;7.70;;;4.10;;
54787;SDS011;59598;48.112;16.280;2023-01-30T07:32:40;6.30;;;3.97;;
54787;SDS011;59598;48.112;16.280;2023-01-30T07:35:14;5.15;;;3.42;;
54787;SDS011;59598;48.112;16.280;2023-01-30T07:37:45;5.55;;;3.20;;
54787;SDS011;59598;48.112;16.280;2023-01-30T07:40:18;5.88;;;3.88;;
54787;SDS011;59598;48.112;16.280;2023-01-30T07:42:56;5.10;;;3.30;;
54787;SDS011;59598;48.112;16.280;2023-01-30T07:45:40;12.52;;;4.13;;
54787;SDS011;59598;48.112;16.280;2023-01-30T07:48:16;12.77;;;4.40;;
54787;SDS011;59598;48.112;16.280;2023-01-30T07:50:49;7.83;;;4.60;;
54787;SDS011;59598;48.112;16.280;2023-01-30T07:53:25;9.13;;;3.85;;
54787;SDS011;59598;48.112;16.280;2023-01-30T07:55:57;5.78;;;3.70;;
54787;SDS011;59598;48.112;16.280;2023-01-30T07:58:31;5.35;;;3.45;;
54787;SDS011;59598;48.112;16.280;2023-01-30T08:01:05;7.63;;;4.22;;
54787;SDS011;59598;48.112;16.280;2023-01-30T08:03:38;5.82;;;4.30;;
54787;SDS011;59598;48.112;16.280;2023-01-30T08:06:10;8.45;;;4.90;;
54787;SDS011;59598;48.112;16.280;2023-01-30T08:08:44;7.35;;;4.32;;
54787;SDS011;59598;48.112;16.280;2023-01-30T08:11:15;10.13;;;4.03;;
54787;SDS011;59598;48.112;16.280;2023-01-30T08:13:47;9.18;;;4.47;;
54787;SDS011;59598;48.112;16.280;2023-01-30T08:16:19;8.25;;;3.75;;
54787;SDS011;59598;48.112;16.280;2023-01-30T08:18:50;7.07;;;3.42;;
54787;SDS011;59598;48.112;16.280;2023-01-30T08:21:29;5.70;;;4.00;;
54787;SDS011;59598;48.112;16.280;2023-01-30T08:24:03;7.87;;;4.33;;
54787;SDS011;59598;48.112;16.280;2023-01-30T08:26:36;7.85;;;3.85;;
54787;SDS011;59598;48.112;16.280;2023-01-30T08:29:08;5.18;;;3.58;;
54787;SDS011;59598;48.112;16.280;2023-01-30T08:31:39;7.15;;;4.00;;
54787;SDS011;59598;48.112;16.280;2023-01-30T08:34:10;5.70;;;3.60;;
54787;SDS011;59598;48.112;16.280;2023-01-30T08:36:43;6.20;;;3.85;;
54787;SDS011;59598;48.112;16.280;2023-01-30T08:39:16;6.38;;;3.83;;
54787;SDS011;59598;48.112;16.280;2023-01-30T08:44:57;4.28;;;2.80;;
54787;SDS011;59598;48.112;16.280;2023-01-30T08:47:28;5.45;;;3.38;;
54787;SDS011;59598;48.112;16.280;2023-01-30T08:50:01;8.02;;;4.93;;
54787;SDS011;59598;48.112;16.280;2023-01-30T08:52:33;11.38;;;3.55;;
54787;SDS011;59598;48.112;16.280;2023-01-30T08:55:04;9.02;;;3.92;;
54787;SDS011;59598;48.112;16.280;2023-01-30T08:57:36;8.38;;;3.58;;
54787;SDS011;59598;48.112;16.280;2023-01-30T09:00:07;5.78;;;3.45;;
54787;SDS011;59598;48.112;16.280;2023-01-30T09:02:42;5.07;;;3.65;;
54787;SDS011;59598;48.112;16.280;2023-01-30T09:05:15;5.88;;;3.42;;
54787;SDS011;59598;48.112;16.280;2023-01-30T09:07:46;4.75;;;2.92;;
54787;SDS011;59598;48.112;16.280;2023-01-30T09:10:18;4.47;;;3.03;;
54787;SDS011;59598;48.112;16.280;2023-01-30T09:12:49;3.17;;;2.75;;
54787;SDS011;59598;48.112;16.280;2023-01-30T09:15:20;7.05;;;2.88;;
54787;SDS011;59598;48.112;16.280;2023-01-30T09:17:51;4.75;;;3.22;;
54787;SDS011;59598;48.112;16.280;2023-01-30T09:20:25;4.95;;;3.00;;
54787;SDS011;59598;48.112;16.280;2023-01-30T09:22:56;3.05;;;2.15;;
54787;SDS011;59598;48.112;16.280;2023-01-30T09:25:27;4.45;;;2.38;;
54787;SDS011;59598;48.112;16.280;2023-01-30T09:27:58;4.63;;;2.88;;
54787;SDS011;59598;48.112;16.280;2023-01-30T09:30:32;7.20;;;4.10;;
54787;SDS011;59598;48.112;16.280;2023-01-30T09:33:03;5.18;;;3.17;;
54787;SDS011;59598;48.112;16.280;2023-01-30T09:35:35;7.55;;;4.35;;
54787;SDS011;59598;48.112;16.280;2023-01-30T09:38:08;10.40;;;3.63;;
54787;SDS011;59598;48.112;16.280;2023-01-30T09:40:42;7.15;;;3.97;;
54787;SDS011;59598;48.112;16.280;2023-01-30T09:52:01;5.18;;;3.08;;
54787;SDS011;59598;48.112;16.280;2023-01-30T09:54:45;5.75;;;3.45;;
54787;SDS011;59598;48.112;16.280;2023-01-30T09:59:57;5.03;;;2.65;;
54787;SDS011;59598;48.112;16.280;2023-01-30T10:03:10;4.18;;;2.80;;
54787;SDS011;59598;48.112;16.280;2023-01-30T10:05:54;5.32;;;2.17;;
54787;SDS011;59598;48.112;16.280;2023-01-30T10:25:51;3.50;;;2.53;;
54787;SDS011;59598;48.112;16.280;2023-01-30T10:28:31;3.20;;;2.38;;
54787;SDS011;59598;48.112;16.280;2023-01-30T10:31:17;4.57;;;2.10;;
54787;SDS011;59598;48.112;16.280;2023-01-30T10:34:03;2.70;;;1.65;;
54787;SDS011;59598;48.112;16.280;2023-01-30T10:36:53;2.60;;;1.70;;
54787;SDS011;59598;48.112;16.280;2023-01-30T10:39:51;1.92;;;1.73;;
54787;SDS011;59598;48.112;16.280;2023-01-30T10:45:26;1.25;;;1.13;;
54787;SDS011;59598;48.112;16.280;2023-01-30T10:48:22;4.65;;;2.05;;
54787;SDS011;59598;48.112;16.280;2023-01-30T10:53:50;1.48;;;1.25;;
54787;SDS011;59598;48.112;16.280;2023-01-30T10:59:40;2.70;;;1.27;;
54787;SDS011;59598;48.112;16.280;2023-01-30T11:04:58;1.35;;;1.23;;
54787;SDS011;59598;48.112;16.280;2023-01-30T11:07:33;1.88;;;1.40;;
54787;SDS011;59598;48.112;16.280;2023-01-30T11:10:04;1.98;;;1.23;;
54787;SDS011;59598;48.112;16.280;2023-01-30T11:12:45;2.22;;;1.55;;
54787;SDS011;59598;48.112;16.280;2023-01-30T11:15:17;3.22;;;1.67;;
54787;SDS011;59598;48.112;16.280;2023-01-30T11:17:48;1.58;;;1.20;;
54787;SDS011;59598;48.112;16.280;2023-01-30T11:20:22;1.63;;;1.17;;
54787;SDS011;59598;48.112;16.280;2023-01-30T11:23:03;1.75;;;1.45;;
54787;SDS011;59598;48.112;16.280;2023-01-30T11:25:49;1.77;;;1.23;;
54787;SDS011;59598;48.112;16.280;2023-01-30T11:28:24;1.38;;;1.20;;
54787;SDS011;59598;48.112;16.280;2023-01-30T11:30:59;2.58;;;1.50;;
54787;SDS011;59598;48.112;16.280;2023-01-30T11:33:32;1.50;;;1.20;;
54787;SDS011;59598;48.112;16.280;2023-01-30T11:36:06;1.10;;;1.00;;
54787;SDS011;59598;48.112;16.280;2023-01-30T11:39:02;2.00;;;1.30;;
54787;SDS011;59598;48.112;16.280;2023-01-30T11:44:27;1.00;;;0.90;;
54787;SDS011;59598;48.112;16.280;2023-01-30T11:47:05;2.38;;;1.30;;
54787;SDS011;59598;48.112;16.280;2023-01-30T11:49:42;0.93;;;0.80;;
54787;SDS011;59598;48.112;16.280;2023-01-30T11:54:48;2.78;;;1.27;;
54787;SDS011;59598;48.112;16.280;2023-01-30T11:57:20;3.20;;;1.05;;
54787;SDS011;59598;48.112;16.280;2023-01-30T11:59:55;1.38;;;1.27;;
54787;SDS011;59598;48.112;16.280;2023-01-30T12:02:31;1.40;;;1.20;;
54787;SDS011;59598;48.112;16.280;2023-01-30T12:05:06;0.88;;;0.88;;
54787;SDS011;59598;48.112;16.280;2023-01-30T12:08:12;1.40;;;1.10;;
54787;SDS011;59598;48.112;16.280;2023-01-30T12:10:56;1.13;;;1.00;;
54787;SDS011;59598;48.112;16.280;2023-01-30T12:13:32;0.82;;;0.80;;
54787;SDS011;59598;48.112;16.280;2023-01-30T12:16:15;0.55;;;0.55;;
54787;SDS011;59598;48.112;16.280;2023-01-30T12:19:01;0.85;;;0.82;;
54787;SDS011;59598;48.112;16.280;2023-01-30T12:21:55;0.77;;;0.77;;
54787;SDS011;59598;48.112;16.280;2023-01-30T12:24:38;1.45;;;1.23;;
54787;SDS011;59598;48.112;16.280;2023-01-30T12:30:37;0.90;;;0.90;;
54787;SDS011;59598;48.112;16.280;2023-01-30T12:33:16;0.85;;;0.80;;
54787;SDS011;59598;48.112;16.280;2023-01-30T12:38:56;1.33;;;1.13;;
54787;SDS011;59598;48.112;16.280;2023-01-30T12:41:37;2.20;;;0.85;;
54787;SDS011;59598;48.112;16.280;2023-01-30T12:44:35;1.25;;;1.02;;
54787;SDS011;59598;48.112;16.280;2023-01-30T12:58:09;1.40;;;1.20;;
54787;SDS011;59598;48.112;16.280;2023-01-30T13:03:49;4.35;;;1.25;;
54787;SDS011;59598;48.112;16.280;2023-01-30T13:09:07;1.88;;;1.60;;
54787;SDS011;59598;48.112;16.280;2023-01-30T13:14:28;1.70;;;1.20;;
54787;SDS011;59598;48.112;16.280;2023-01-30T13:20:12;1.38;;;1.27;;
54787;SDS011;59598;48.112;16.280;2023-01-30T13:22:51;5.07;;;1.55;;
54787;SDS011;59598;48.112;16.280;2023-01-30T13:28:24;2.90;;;1.77;;
54787;SDS011;59598;48.112;16.280;2023-01-30T13:31:00;2.20;;;1.60;;
54787;SDS011;59598;48.112;16.280;2023-01-30T13:33:36;2.05;;;1.65;;
54787;SDS011;59598;48.112;16.280;2023-01-30T13:38:57;3.50;;;2.30;;
54787;SDS011;59598;48.112;16.280;2023-01-30T13:41:36;6.22;;;1.55;;
54787;SDS011;59598;48.112;16.280;2023-01-30T13:44:19;2.45;;;1.98;;
54787;SDS011;59598;48.112;16.280;2023-01-30T13:46:54;5.38;;;2.45;;
54787;SDS011;59598;48.112;16.280;2023-01-30T13:49:29;3.45;;;2.40;;
54787;SDS011;59598;48.112;16.280;2023-01-30T13:52:16;5.63;;;3.28;;
54787;SDS011;59598;48.112;16.280;2023-01-30T14:09:45;3.42;;;2.47;;
54787;SDS011;59598;48.112;16.280;2023-01-30T14:12:43;9.98;;;2.97;;
54787;SDS011;59598;48.112;16.280;2023-01-30T14:15:23;3.67;;;2.58;;
54787;SDS011;59598;48.112;16.280;2023-01-30T14:20:38;2.92;;;2.08;;
54787;SDS011;59598;48.112;16.280;2023-01-30T14:23:31;4.18;;;2.33;;
54787;SDS011;59598;48.112;16.280;2023-01-30T14:26:04;5.93;;;2.78;;
54787;SDS011;59598;48.112;16.280;2023-01-30T14:28:45;3.80;;;2.20;;
54787;SDS011;59598;48.112;16.280;2023-01-30T14:34:37;3.30;;;2.15;;
54787;SDS011;59598;48.112;16.280;2023-01-30T14:39:59;3.92;;;2.42;;
54787;SDS011;59598;48.112;16.280;2023-01-30T14:42:31;2.65;;;2.10;;
54787;SDS011;59598;48.112;16.280;2023-01-30T14:45:41;3.67;;;2.63;;
54787;SDS011;59598;48.112;16.280;2023-01-30T14:56:56;3.28;;;2.20;;
54787;SDS011;59598;48.112;16.280;2023-01-30T15:02:27;2.33;;;1.80;;
54787;SDS011;59598;48.112;16.280;2023-01-30T15:05:44;2.90;;;2.03;;
54787;SDS011;59598;48.112;16.280;2023-01-30T15:10:52;2.85;;;1.92;;
54787;SDS011;59598;48.112;16.280;2023-01-30T15:19:20;4.53;;;2.25;;
54787;SDS011;59598;48.112;16.280;2023-01-30T15:22:20;2.30;;;2.00;;
54787;SDS011;59598;48.112;16.280;2023-01-30T15:28:00;3.60;;;2.28;;
54787;SDS011;59598;48.112;16.280;2023-01-30T15:31:07;4.20;;;2.22;;
54787;SDS011;59598;48.112;16.280;2023-01-30T15:33:53;2.63;;;1.95;;
54787;SDS011;59598;48.112;16.280;2023-01-30T15:36:32;2.47;;;1.77;;
54787;SDS011;59598;48.112;16.280;2023-01-30T15:41:57;2.67;;;1.80;;
54787;SDS011;59598;48.112;16.280;2023-01-30T15:44:48;2.50;;;2.03;;
54787;SDS011;59598;48.112;16.280;2023-01-30T15:47:44;2.85;;;2.58;;
54787;SDS011;59598;48.112;16.280;2023-01-30T15:50:16;3.22;;;1.90;;
54787;SDS011;59598;48.112;16.280;2023-01-30T15:52:47;2.42;;;2.00;;
54787;SDS011;59598;48.112;16.280;2023-01-30T15:58:00;4.35;;;1.83;;
54787;SDS011;59598;48.112;16.280;2023-01-30T16:00:35;3.35;;;1.80;;
54787;SDS011;59598;48.112;16.280;2023-01-30T16:03:10;2.58;;;2.17;;
54787;SDS011;59598;48.112;16.280;2023-01-30T16:05:50;2.92;;;2.15;;
54787;SDS011;59598;48.112;16.280;2023-01-30T16:08:25;2.67;;;2.08;;
54787;SDS011;59598;48.112;16.280;2023-01-30T16:10:58;3.60;;;1.85;;
54787;SDS011;59598;48.112;16.280;2023-01-30T16:13:30;2.72;;;1.90;;
54787;SDS011;59598;48.112;16.280;2023-01-30T16:16:13;2.88;;;1.92;;
54787;SDS011;59598;48.112;16.280;2023-01-30T16:19:00;3.80;;;2.13;;
54787;SDS011;59598;48.112;16.280;2023-01-30T16:21:36;4.15;;;2.47;;
54787;SDS011;59598;48.112;16.280;2023-01-30T16:24:16;3.42;;;2.13;;
54787;SDS011;59598;48.112;16.280;2023-01-30T16:26:57;2.35;;;1.95;;
54787;SDS011;59598;48.112;16.280;2023-01-30T16:29:33;3.65;;;1.55;;
54787;SDS011;59598;48.112;16.280;2023-01-30T16:32:15;2.20;;;1.80;;
54787;SDS011;59598;48.112;16.280;2023-01-30T16:35:13;3.05;;;1.88;;
54787;SDS011;59598;48.112;16.280;2023-01-30T16:37:58;1.83;;;1.48;;
54787;SDS011;59598;48.112;16.280;2023-01-30T16:40:41;1.95;;;1.65;;
54787;SDS011;59598;48.112;16.280;2023-01-30T16:48:48;2.40;;;1.67;;
54787;SDS011;59598;48.112;16.280;2023-01-30T16:51:21;2.45;;;2.17;;
54787;SDS011;59598;48.112;16.280;2023-01-30T16:53:55;1.90;;;1.67;;
54787;SDS011;59598;48.112;16.280;2023-01-30T16:56:31;2.67;;;1.95;;
54787;SDS011;59598;48.112;16.280;2023-01-30T16:59:03;2.90;;;2.05;;
54787;SDS011;59598;48.112;16.280;2023-01-30T17:01:36;2.15;;;1.95;;
54787;SDS011;59598;48.112;16.280;2023-01-30T17:04:15;2.17;;;1.75;;
54787;SDS011;59598;48.112;16.280;2023-01-30T17:07:00;1.95;;;1.70;;
54787;SDS011;59598;48.112;16.280;2023-01-30T17:09:43;3.67;;;2.22;;
54787;SDS011;59598;48.112;16.280;2023-01-30T17:17:43;2.92;;;2.17;;
54787;SDS011;59598;48.112;16.280;2023-01-30T17:20:14;2.15;;;1.85;;
54787;SDS011;59598;48.112;16.280;2023-01-30T17:22:46;3.20;;;1.65;;
54787;SDS011;59598;48.112;16.280;2023-01-30T17:25:28;2.25;;;2.05;;
54787;SDS011;59598;48.112;16.280;2023-01-30T17:28:05;2.05;;;1.77;;
54787;SDS011;59598;48.112;16.280;2023-01-30T17:30:37;2.53;;;1.98;;
54787;SDS011;59598;48.112;16.280;2023-01-30T17:33:08;2.55;;;2.25;;
54787;SDS011;59598;48.112;16.280;2023-01-30T17:35:43;2.70;;;1.83;;
54787;SDS011;59598;48.112;16.280;2023-01-30T17:38:15;3.70;;;2.20;;
54787;SDS011;59598;48.112;16.280;2023-01-30T17:40:46;2.13;;;1.92;;
54787;SDS011;59598;48.112;16.280;2023-01-30T17:43:17;2.63;;;2.40;;
54787;SDS011;59598;48.112;16.280;2023-01-30T17:45:48;2.88;;;1.88;;
54787;SDS011;59598;48.112;16.280;2023-01-30T17:48:22;2.73;;;1.93;;
54787;SDS011;59598;48.112;16.280;2023-01-30T17:50:53;3.25;;;1.90;;
54787;SDS011;59598;48.112;16.280;2023-01-30T17:53:26;2.45;;;2.08;;
54787;SDS011;59598;48.112;16.280;2023-01-30T17:55:58;2.83;;;2.13;;
54787;SDS011;59598;48.112;16.280;2023-01-30T17:58:29;2.15;;;1.73;;
54787;SDS011;59598;48.112;16.280;2023-01-30T18:01:02;2.42;;;2.00;;
54787;SDS011;59598;48.112;16.280;2023-01-30T18:03:33;2.20;;;2.00;;
54787;SDS011;59598;48.112;16.280;2023-01-30T18:06:04;2.45;;;2.20;;
54787;SDS011;59598;48.112;16.280;2023-01-30T18:08:36;2.53;;;1.85;;
54787;SDS011;59598;48.112;16.280;2023-01-30T18:11:07;2.25;;;1.77;;
54787;SDS011;59598;48.112;16.280;2023-01-30T18:13:41;2.58;;;2.13;;
54787;SDS011;59598;48.112;16.280;2023-01-30T18:16:16;2.63;;;1.90;;
54787;SDS011;59598;48.112;16.280;2023-01-30T18:18:51;3.55;;;1.88;;
54787;SDS011;59598;48.112;16.280;2023-01-30T18:21:23;2.25;;;1.92;;
54787;SDS011;59598;48.112;16.280;2023-01-30T18:23:56;2.85;;;2.30;;
54787;SDS011;59598;48.112;16.280;2023-01-30T18:26:28;2.28;;;1.85;;